Time;durP1;ratioP1;P1;durP2;ratioP2;P2;SDS_P1;SDS_P2;PMS_P1;PMS_P2;Temp;Humidity;BMP_temperature;BMP_pressure;BME280_temperature;BME280_humidity;BME280_pressure;Samples;Min_cycle;Max_cycle;Signal;HPM_P1;HPM_P2
2021/07/12 00:00:50;;;;;;;10.93;6.95;;;589.40;2406.40;;;;;;5037171;28;20028;-56
2021/07/12 00:03:16;;;;;;;11.50;7.50;;;589.40;2380.80;;;;;;5037085;28;20083;-55
2021/07/12 00:05:41;;;;;;;10.50;7.38;;;589.60;2406.40;;;;;;5036992;28;20151;-56
2021/07/12 00:08:08;;;;;;;11.30;7.50;;;589.50;2406.40;;;;;;5037006;28;20042;-56
2021/07/12 00:10:35;;;;;;;13.85;7.45;;;589.50;2406.40;;;;;;5036738;28;20060;-56
2021/07/12 00:13:02;;;;;;;14.55;7.18;;;589.50;2380.80;;;;;;5037106;28;20361;-56
2021/07/12 00:15:29;;;;;;;11.15;7.45;;;589.40;2406.40;;;;;;5036989;28;20371;-56
2021/07/12 00:17:54;;;;;;;10.98;7.47;;;589.40;2380.80;;;;;;5037061;28;20095;-56
2021/07/12 00:20:21;;;;;;;16.08;8.23;;;589.40;2406.40;;;;;;5037475;28;20025;-55
2021/07/12 00:22:48;;;;;;;12.05;7.82;;;589.40;2406.40;;;;;;5036741;28;20026;-56
2021/07/12 00:25:15;;;;;;;9.93;7.75;;;564.10;2406.40;;;;;;5036553;28;20025;-56
2021/07/12 00:27:41;;;;;;;10.63;7.57;;;589.30;2406.40;;;;;;5036698;28;20036;-56
2021/07/12 00:30:10;;;;;;;13.98;8.05;;;589.20;2432.00;;;;;;5036643;28;20037;-56
2021/07/12 00:32:37;;;;;;;10.80;7.70;;;589.20;2432.00;;;;;;5036626;28;20493;-56
2021/07/12 00:35:07;;;;;;;9.80;8.23;;;589.20;2432.00;;;;;;5036802;28;20034;-57
2021/07/12 00:37:33;;;;;;;12.35;8.27;;;589.10;2432.00;;;;;;5036265;28;20021;-56
2021/07/12 00:39:59;;;;;;;10.60;8.13;;;589.10;2432.00;;;;;;5036489;28;20437;-59
2021/07/12 00:42:25;;;;;;;11.18;8.25;;;589.00;2432.00;;;;;;5036466;28;20021;-58
2021/07/12 00:44:51;;;;;;;11.93;7.95;;;589.00;2432.00;;;;;;5036419;28;20475;-56
2021/07/12 00:47:17;;;;;;;10.52;8.27;;;589.00;2432.00;;;;;;5036568;28;20026;-56
2021/07/12 00:49:43;;;;;;;14.25;8.35;;;588.90;2432.00;;;;;;5036405;28;20423;-59
2021/07/12 00:52:08;;;;;;;11.35;8.30;;;588.90;2432.00;;;;;;5036132;28;20037;-59
2021/07/12 00:54:36;;;;;;;10.00;8.05;;;588.90;2432.00;;;;;;5036121;28;20057;-57
2021/07/12 00:57:05;;;;;;;12.60;8.75;;;588.90;2432.00;;;;;;5036206;28;20049;-56
2021/07/12 00:59:30;;;;;;;11.18;7.75;;;588.90;2432.00;;;;;;5034767;28;20485;-58
2021/07/12 01:01:56;;;;;;;13.35;7.93;;;588.90;2432.00;;;;;;5036180;28;20120;-58
2021/07/12 01:04:22;;;;;;;12.23;8.00;;;588.90;2432.00;;;;;;5036167;28;20096;-59
2021/07/12 01:06:48;;;;;;;9.25;7.38;;;588.90;2432.00;;;;;;5035684;28;20101;-56
2021/07/12 01:09:14;;;;;;;8.88;7.63;;;588.90;2432.00;;;;;;5035562;28;20546;-58
2021/07/12 01:11:55;;;;;;;9.23;7.47;;;588.90;2406.40;;;;;;5035827;28;20053;-57
2021/07/12 01:14:33;;;;;;;11.73;8.20;;;588.90;2406.40;;;;;;5036247;28;20025;-57
2021/07/12 01:17:39;;;;;;;12.35;7.97;;;589.00;2406.40;;;;;;5035821;28;20036;-58
2021/07/12 01:20:44;;;;;;;9.40;7.70;;;589.00;2406.40;;;;;;5035918;28;20038;-57
2021/07/12 01:23:25;;;;;;;10.48;7.72;;;589.00;2406.40;;;;;;5035541;28;20100;-56
2021/07/12 01:26:21;;;;;;;10.43;7.93;;;588.90;2406.40;;;;;;5035565;28;20026;-59
2021/07/12 01:28:55;;;;;;;12.23;7.88;;;588.90;2380.80;;;;;;5035751;28;20444;-57
2021/07/12 01:31:39;;;;;;;9.52;7.88;;;588.90;2380.80;;;;;;5035717;28;20026;-59
2021/07/12 01:34:30;;;;;;;9.70;7.60;;;588.80;2380.80;;;;;;5035630;28;20021;-59
2021/07/12 01:37:20;;;;;;;11.32;7.90;;;588.80;2380.80;;;;;;5035100;28;20026;-58
2021/07/12 01:39:57;;;;;;;11.32;8.32;;;564.10;2380.80;;;;;;5035475;28;20029;-59
2021/07/12 01:42:29;;;;;;;11.55;7.60;;;564.00;2406.40;;;;;;5035288;28;20030;-57
2021/07/12 01:45:26;;;;;;;9.00;7.53;;;564.00;2406.40;;;;;;5035169;28;20032;-58
2021/07/12 01:48:07;;;;;;;10.27;7.32;;;564.00;2406.40;;;;;;5053242;28;20037;-58
2021/07/12 01:50:50;;;;;;;11.10;7.40;;;564.00;2406.40;;;;;;5053006;28;20083;-55
2021/07/12 01:53:42;;;;;;;9.68;7.25;;;564.00;2406.40;;;;;;5053046;28;20526;-57
2021/07/12 01:56:10;;;;;;;9.55;7.50;;;564.00;2406.40;;;;;;5052719;28;20025;-56
2021/07/12 01:58:42;;;;;;;8.15;6.75;;;564.00;2406.40;;;;;;5052737;28;20043;-56
2021/07/12 02:01:10;;;;;;;11.55;7.22;;;564.00;2406.40;;;;;;5052899;28;20348;-56
2021/07/12 02:03:36;;;;;;;9.82;7.00;;;564.10;2406.40;;;;;;5052594;28;20418;-57
2021/07/12 02:06:05;;;;;;;9.73;7.07;;;564.00;2406.40;;;;;;5052813;28;20029;-56
2021/07/12 02:08:32;;;;;;;10.20;7.72;;;564.00;2380.80;;;;;;5052479;28;20070;-56
2021/07/12 02:10:59;;;;;;;8.55;6.97;;;564.00;2380.80;;;;;;5052382;28;20041;-57
2021/07/12 02:13:25;;;;;;;10.43;7.78;;;564.00;2406.40;;;;;;5052683;28;20509;-55
2021/07/12 02:15:55;;;;;;;11.07;7.38;;;564.00;2406.40;;;;;;5052595;28;20029;-56
2021/07/12 02:18:25;;;;;;;9.32;7.18;;;563.90;2406.40;;;;;;5052265;28;20029;-56
2021/07/12 02:20:54;;;;;;;10.13;7.30;;;564.00;2406.40;;;;;;5052637;28;20049;-57
2021/07/12 02:23:21;;;;;;;9.02;6.93;;;563.80;2406.40;;;;;;5049628;28;20112;-56
2021/07/12 02:25:47;;;;;;;8.32;6.88;;;563.80;2406.40;;;;;;5034640;28;20048;-56
2021/07/12 02:28:15;;;;;;;7.93;7.10;;;563.70;2406.40;;;;;;5034504;28;20064;-56
2021/07/12 02:30:43;;;;;;;10.02;7.22;;;563.60;2406.40;;;;;;5034527;28;20430;-56
2021/07/12 02:33:11;;;;;;;9.20;7.15;;;563.60;2406.40;;;;;;5034483;28;20108;-56
2021/07/12 02:35:37;;;;;;;9.93;7.20;;;563.50;2406.40;;;;;;5034228;28;20105;-56
2021/07/12 02:38:04;;;;;;;8.88;6.82;;;563.50;2406.40;;;;;;5034086;28;20033;-56
2021/07/12 02:40:31;;;;;;;10.93;7.13;;;563.40;2406.40;;;;;;5034288;28;20152;-56
2021/07/12 02:42:58;;;;;;;9.10;6.60;;;563.40;2432.00;;;;;;5034323;28;20382;-56
2021/07/12 02:45:26;;;;;;;9.50;6.55;;;563.30;2432.00;;;;;;5034110;28;20112;-57
2021/07/12 02:47:52;;;;;;;10.50;6.90;;;563.30;2432.00;;;;;;5034231;28;20041;-57
2021/07/12 02:50:20;;;;;;;8.68;6.95;;;563.30;2432.00;;;;;;5033876;28;20033;-56
2021/07/12 02:52:52;;;;;;;10.00;7.10;;;563.30;2432.00;;;;;;5033947;28;20033;-56
2021/07/12 02:55:17;;;;;;;8.85;6.85;;;563.20;2432.00;;;;;;5034061;28;20029;-57
2021/07/12 02:57:44;;;;;;;10.30;7.15;;;563.20;2432.00;;;;;;5033781;28;20513;-57
2021/07/12 03:00:11;;;;;;;10.07;6.57;;;563.20;2432.00;;;;;;5034407;28;20037;-57
2021/07/12 03:02:37;;;;;;;9.45;7.05;;;563.20;2432.00;;;;;;5033921;28;20105;-57
2021/07/12 03:05:06;;;;;;;10.00;7.28;;;538.50;2406.40;;;;;;5033773;28;20036;-57
2021/07/12 03:07:37;;;;;;;10.10;6.97;;;538.50;2406.40;;;;;;5034118;28;20034;-56
2021/07/12 03:10:12;;;;;;;11.52;7.63;;;538.50;2406.40;;;;;;5033553;28;20483;-56
2021/07/12 03:12:43;;;;;;;;;;;538.50;2406.40;;;;;;5034383;28;20029;-56
2021/07/12 03:15:11;;;;;;;12.13;7.28;;;538.50;2406.40;;;;;;5034267;28;19916;-57
2021/07/12 03:17:59;;;;;;;9.50;6.90;;;538.40;2406.40;;;;;;5033780;28;20087;-55
2021/07/12 03:20:28;;;;;;;9.65;7.40;;;538.40;2406.40;;;;;;5033776;28;20032;-55
2021/07/12 03:22:57;;;;;;;8.90;6.93;;;538.40;2406.40;;;;;;5033282;28;20033;-56
2021/07/12 03:25:33;;;;;;;11.68;7.30;;;538.40;2406.40;;;;;;5033737;28;20084;-56
2021/07/12 03:28:00;;;;;;;10.98;7.75;;;538.50;2406.40;;;;;;5033625;28;20034;-56
2021/07/12 03:30:28;;;;;;;9.93;7.40;;;538.40;2406.40;;;;;;5033524;28;20041;-55
2021/07/12 03:32:56;;;;;;;10.18;7.53;;;538.50;2406.40;;;;;;5033786;28;20020;-56
2021/07/12 03:35:30;;;;;;;9.57;6.90;;;538.50;2406.40;;;;;;5033678;28;20530;-56
2021/07/12 03:37:56;;;;;;;9.15;7.18;;;538.50;2406.40;;;;;;5033526;28;20379;-56
2021/07/12 03:40:23;;;;;;;11.60;7.47;;;538.50;2406.40;;;;;;5033633;28;20033;-55
2021/07/12 03:42:49;;;;;;;13.10;7.68;;;538.40;2406.40;;;;;;5033249;28;20489;-56
2021/07/12 03:45:15;;;;;;;9.57;7.55;;;538.50;2406.40;;;;;;5033635;28;20109;-56
2021/07/12 03:47:41;;;;;;;8.60;7.40;;;538.40;2406.40;;;;;;5033681;28;20025;-56
2021/07/12 03:50:13;;;;;;;11.73;8.02;;;538.40;2406.40;;;;;;5033203;28;20045;-55
2021/07/12 03:52:48;;;;;;;9.88;7.40;;;538.40;2406.40;;;;;;5033527;28;20026;-55
2021/07/12 03:55:19;;;;;;;8.95;7.55;;;538.40;2406.40;;;;;;5033180;28;20029;-55
2021/07/12 03:57:46;;;;;;;10.70;7.82;;;538.40;2406.40;;;;;;5033235;28;20046;-55
2021/07/12 04:00:14;;;;;;;10.57;7.43;;;538.40;2406.40;;;;;;5033530;28;20029;-55
2021/07/12 04:02:40;;;;;;;8.57;7.55;;;538.40;2406.40;;;;;;5033410;28;20060;-55
2021/07/12 04:05:08;;;;;;;12.40;8.18;;;538.40;2406.40;;;;;;5033109;28;20087;-55
2021/07/12 04:07:35;;;;;;;12.25;8.13;;;538.50;2406.40;;;;;;5033643;28;20021;-55
2021/07/12 04:10:01;;;;;;;11.60;7.95;;;538.40;2406.40;;;;;;5032993;28;20041;-55
2021/07/12 04:12:27;;;;;;;10.80;7.93;;;538.40;2406.40;;;;;;5033340;28;20079;-55
2021/07/12 04:14:54;;;;;;;11.40;8.15;;;538.40;2406.40;;;;;;5033421;28;20026;-55
2021/07/12 04:17:20;;;;;;;11.02;7.82;;;538.50;2406.40;;;;;;5033267;28;20080;-56
2021/07/12 04:19:46;;;;;;;11.80;8.20;;;538.40;2406.40;;;;;;5033155;28;20079;-59
2021/07/12 04:22:13;;;;;;;10.05;8.40;;;538.50;2406.40;;;;;;5033297;28;20052;-59
2021/07/12 04:24:39;;;;;;;12.27;8.20;;;538.40;2406.40;;;;;;5033114;28;20584;-59
2021/07/12 04:27:05;;;;;;;11.20;8.52;;;538.40;2406.40;;;;;;5032887;28;20056;-58
2021/07/12 04:29:31;;;;;;;12.77;8.38;;;538.50;2406.40;;;;;;5032902;28;20044;-59
2021/07/12 04:32:00;;;;;;;10.32;8.73;;;563.20;2432.00;;;;;;5033144;28;20025;-59
2021/07/12 04:34:26;;;;;;;11.07;8.98;;;563.20;2432.00;;;;;;5033773;28;20030;-59
2021/07/12 04:36:52;;;;;;;11.43;9.52;;;563.20;2432.00;;;;;;5036827;28;20020;-59
2021/07/12 04:39:18;;;;;;;12.30;9.10;;;563.20;2432.00;;;;;;5036539;28;20375;-59
2021/07/12 04:41:43;;;;;;;13.20;9.48;;;563.30;2432.00;;;;;;5036383;28;20108;-60
2021/07/12 04:44:09;;;;;;;13.15;8.95;;;563.40;2432.00;;;;;;5036471;28;20036;-59
2021/07/12 04:46:35;;;;;;;11.40;8.88;;;563.40;2432.00;;;;;;5036494;28;20091;-58
2021/07/12 04:49:00;;;;;;;13.77;9.48;;;563.40;2432.00;;;;;;5036883;28;20068;-59
2021/07/12 04:51:26;;;;;;;12.77;9.60;;;563.50;2432.00;;;;;;5035883;28;20065;-59
2021/07/12 04:53:52;;;;;;;14.98;9.65;;;563.50;2432.00;;;;;;5036338;28;20112;-59
2021/07/12 04:56:18;;;;;;;13.05;9.10;;;563.60;2432.00;;;;;;5036210;28;20033;-59
2021/07/12 04:58:47;;;;;;;13.35;8.98;;;563.90;2406.40;;;;;;5036091;28;20025;-59
2021/07/12 05:01:15;;;;;;;12.68;8.32;;;564.00;2380.80;;;;;;5036094;28;20057;-59
2021/07/12 05:03:41;;;;;;;13.48;8.68;;;588.80;2355.20;;;;;;5035628;28;20048;-59
2021/07/12 05:06:07;;;;;;;11.48;8.50;;;589.00;2329.60;;;;;;5036123;28;20025;-59
2021/07/12 05:08:32;;;;;;;14.35;8.40;;;589.10;2304.00;;;;;;5034968;28;20383;-59
2021/07/12 05:10:59;;;;;;;12.32;7.90;;;589.30;2304.00;;;;;;5035862;28;20041;-59
2021/07/12 05:13:25;;;;;;;14.35;8.13;;;589.50;2278.40;;;;;;5036102;28;20109;-59
2021/07/12 05:15:51;;;;;;;11.20;8.27;;;589.70;2252.80;;;;;;5035967;28;20029;-61
2021/07/12 05:18:16;;;;;;;11.82;8.10;;;589.70;2227.20;;;;;;5036578;28;20167;-60
2021/07/12 05:20:42;;;;;;;10.73;7.70;;;614.50;2227.20;;;;;;5037621;28;20100;-77
2021/07/12 05:23:08;;;;;;;10.43;8.32;;;614.60;2201.60;;;;;;5035434;28;20497;-72
2021/07/12 05:25:33;;;;;;;10.60;7.55;;;614.70;2176.00;;;;;;5034950;28;20041;-77
2021/07/12 05:27:59;;;;;;;10.02;8.23;;;614.70;2176.00;;;;;;5036109;28;20111;-76
2021/07/12 05:30:25;;;;;;;12.50;7.88;;;614.60;2176.00;;;;;;5036234;28;20490;-75
2021/07/12 05:32:50;;;;;;;11.23;8.18;;;614.50;2201.60;;;;;;5035997;28;20100;-76
2021/07/12 05:35:16;;;;;;;11.85;8.20;;;614.50;2201.60;;;;;;5035602;28;20025;-73
2021/07/12 05:37:43;;;;;;;12.80;8.45;;;614.50;2201.60;;;;;;5035651;28;20079;-72
2021/07/12 05:40:09;;;;;;;12.48;8.18;;;614.60;2201.60;;;;;;5035122;28;20475;-71
2021/07/12 05:42:35;;;;;;;9.50;7.47;;;614.60;2176.00;;;;;;5034870;28;20049;-70
2021/07/12 05:45:01;;;;;;;8.43;7.22;;;614.50;2176.00;;;;;;5035152;28;20025;-71
2021/07/12 05:47:27;;;;;;;9.85;7.35;;;614.70;2176.00;;;;;;5035301;28;20415;-71
2021/07/12 05:49:53;;;;;;;11.77;7.53;;;614.70;2176.00;;;;;;5031450;28;20034;-70
2021/07/12 05:52:18;;;;;;;9.63;7.65;;;614.80;2150.40;;;;;;5034955;28;20029;-70
2021/07/12 05:54:45;;;;;;;9.45;7.47;;;614.80;2150.40;;;;;;5034769;28;20021;-71
2021/07/12 05:57:11;;;;;;;9.32;7.18;;;614.80;2150.40;;;;;;5034386;28;20041;-74
2021/07/12 05:59:37;;;;;;;7.90;7.10;;;614.90;2124.80;;;;;;5034755;28;20029;-70
2021/07/12 06:02:06;;;;;;;9.27;7.72;;;615.10;2124.80;;;;;;5034851;28;20437;-71
2021/07/12 06:04:32;;;;;;;12.05;7.57;;;615.20;2099.20;;;;;;5034771;28;20044;-73
2021/07/12 06:06:57;;;;;;;11.32;7.03;;;615.30;2099.20;;;;;;5033348;28;20446;-78
2021/07/12 06:09:23;;;;;;;10.10;7.18;;;640.00;2073.60;;;;;;5034473;28;20079;-70
2021/07/12 06:11:49;;;;;;;12.07;7.82;;;640.10;2073.60;;;;;;5034491;28;20073;-77
2021/07/12 06:14:15;;;;;;;10.85;7.22;;;640.10;2099.20;;;;;;5034618;28;20021;-69
2021/07/12 06:16:41;;;;;;;8.73;6.93;;;640.20;2073.60;;;;;;5034235;28;20060;-72
2021/07/12 06:19:06;;;;;;;8.63;6.85;;;640.30;2073.60;;;;;;5033478;28;20079;-75
2021/07/12 06:21:32;;;;;;;7.80;6.97;;;640.50;2048.00;;;;;;5034830;28;20034;-71
2021/07/12 06:23:58;;;;;;;8.68;6.53;;;640.60;2022.40;;;;;;5034211;28;20018;-72
2021/07/12 06:26:23;;;;;;;8.65;6.32;;;640.90;2022.40;;;;;;5034380;28;20509;-70
2021/07/12 06:28:49;;;;;;;7.55;6.43;;;665.70;2022.40;;;;;;5034142;28;20025;-72
2021/07/12 06:31:15;;;;;;;8.70;6.50;;;665.90;1996.80;;;;;;5034805;28;20441;-73
2021/07/12 06:33:41;;;;;;;8.77;7.05;;;666.00;1996.80;;;;;;5034301;28;20029;-73
2021/07/12 06:36:06;;;;;;;8.80;7.22;;;666.10;1996.80;;;;;;5034572;28;20108;-72
2021/07/12 06:38:33;;;;;;;9.95;6.50;;;665.80;2022.40;;;;;;5034470;28;20057;-73
2021/07/12 06:40:59;;;;;;;9.52;7.35;;;665.80;2022.40;;;;;;5034191;28;20083;-74
2021/07/12 06:43:25;;;;;;;7.93;6.82;;;665.80;1996.80;;;;;;5033824;28;20030;-73
2021/07/12 06:45:50;;;;;;;8.23;6.55;;;665.80;2022.40;;;;;;5034312;28;20022;-75
2021/07/12 06:48:16;;;;;;;10.77;6.75;;;665.80;2022.40;;;;;;5034041;28;20506;-72
2021/07/12 06:50:42;;;;;;;10.18;6.70;;;665.90;1996.80;;;;;;5034262;28;20090;-71
2021/07/12 06:53:07;;;;;;;9.65;6.45;;;665.90;1996.80;;;;;;5034210;28;20014;-74
2021/07/12 06:55:33;;;;;;;9.63;6.80;;;666.10;1996.80;;;;;;5033902;28;20467;-71
2021/07/12 06:58:00;;;;;;;9.80;6.75;;;665.90;1971.20;;;;;;5032598;28;20057;-71
2021/07/12 07:00:26;;;;;;;9.27;6.85;;;665.80;1996.80;;;;;;5034045;28;20033;-70
2021/07/12 07:02:52;;;;;;;9.63;7.30;;;665.90;2022.40;;;;;;5033844;28;20021;-73
2021/07/12 07:05:18;;;;;;;9.55;7.18;;;665.80;2022.40;;;;;;5021719;28;20036;-67
2021/07/12 07:07:44;;;;;;;7.28;6.47;;;640.90;2022.40;;;;;;5032966;28;20071;-73
2021/07/12 07:10:10;;;;;;;8.88;6.55;;;665.80;2048.00;;;;;;5032941;28;20057;-75
2021/07/12 07:12:36;;;;;;;8.43;7.25;;;665.90;2022.40;;;;;;5033488;28;20022;-78
2021/07/12 07:15:02;;;;;;;8.98;6.70;;;665.90;2048.00;;;;;;5032689;28;20026;-74
2021/07/12 07:17:28;;;;;;;11.32;6.97;;;665.90;2022.40;;;;;;5033546;28;20375;-74
2021/07/12 07:19:54;;;;;;;10.25;7.00;;;666.00;1996.80;;;;;;5033458;28;20029;-73
2021/07/12 07:22:20;;;;;;;8.68;7.60;;;665.80;2022.40;;;;;;5033332;28;20087;-70
2021/07/12 07:24:45;;;;;;;10.45;8.10;;;665.80;2022.40;;;;;;5033125;28;20387;-76
2021/07/12 07:27:11;;;;;;;10.10;8.13;;;665.90;1996.80;;;;;;5032943;28;20148;-73
2021/07/12 07:29:37;;;;;;;9.63;7.35;;;665.90;2022.40;;;;;;5033547;28;20072;-73
2021/07/12 07:32:03;;;;;;;9.95;7.88;;;665.90;2022.40;;;;;;5033504;28;20467;-69
2021/07/12 07:34:29;;;;;;;10.05;7.63;;;665.70;2022.40;;;;;;5033913;28;20026;-70
2021/07/12 07:36:58;;;;;;;9.63;7.38;;;665.80;2048.00;;;;;;5033736;28;20025;-68
2021/07/12 07:39:23;;;;;;;9.90;8.00;;;665.80;2048.00;;;;;;5033330;28;20029;-68
2021/07/12 07:41:49;;;;;;;11.50;8.48;;;665.80;2022.40;;;;;;5033509;28;20151;-67
2021/07/12 07:44:15;;;;;;;10.45;6.97;;;665.60;2048.00;;;;;;5033337;28;20030;-69
2021/07/12 07:46:41;;;;;;;11.40;8.20;;;665.90;2073.60;;;;;;5033341;28;20021;-67
2021/07/12 07:49:08;;;;;;;9.10;7.97;;;666.10;1996.80;;;;;;5033257;28;20117;-69
2021/07/12 07:51:36;;;;;;;8.80;7.55;;;666.40;1996.80;;;;;;5033388;28;20057;-69
2021/07/12 07:54:04;;;;;;;13.05;7.22;;;666.50;1996.80;;;;;;5033422;28;20021;-75
2021/07/12 07:56:29;;;;;;;9.85;8.10;;;691.20;1971.20;;;;;;5032928;28;20033;-68
2021/07/12 07:58:55;;;;;;;11.20;9.15;;;691.30;1945.60;;;;;;5032800;28;20024;-66
2021/07/12 08:01:21;;;;;;;9.35;7.90;;;691.30;1945.60;;;;;;5029719;28;20060;-68
2021/07/12 08:03:46;;;;;;;13.25;8.32;;;666.50;1996.80;;;;;;5033410;28;20037;-65
2021/07/12 08:06:12;;;;;;;10.63;8.23;;;691.30;1971.20;;;;;;5033021;28;20025;-68
2021/07/12 08:08:38;;;;;;;9.60;8.60;;;691.50;1945.60;;;;;;5033981;28;20120;-75
2021/07/12 08:11:04;;;;;;;9.38;7.20;;;691.50;1920.00;;;;;;5036831;28;20033;-73
2021/07/12 08:13:29;;;;;;;10.63;7.80;;;691.90;1920.00;;;;;;5036583;28;20052;-67
2021/07/12 08:15:55;;;;;;;8.75;7.78;;;692.00;1920.00;;;;;;5037039;28;20036;-78
2021/07/12 08:18:22;;;;;;;10.70;7.80;;;691.70;1868.80;;;;;;5037658;28;20060;-77
2021/07/12 08:20:48;;;;;;;12.32;8.55;;;692.10;1868.80;;;;;;5037056;28;20025;-72
2021/07/12 08:23:15;;;;;;;9.98;8.13;;;692.10;1843.20;;;;;;5036541;28;20036;-74
2021/07/12 08:25:41;;;;;;;9.57;8.10;;;692.10;1868.80;;;;;;5068501;28;20513;-81
2021/07/12 08:28:07;;;;;;;9.75;7.15;;;691.70;1894.40;;;;;;5036593;28;20074;-68
2021/07/12 08:30:32;;;;;;;9.23;8.13;;;692.00;1894.40;;;;;;5036729;28;20497;-75
2021/07/12 08:32:58;;;;;;;8.50;7.65;;;692.10;1843.20;;;;;;5036066;28;20017;-68
2021/07/12 08:35:24;;;;;;;9.80;7.70;;;716.80;1843.20;;;;;;5035970;28;20029;-66
2021/07/12 08:37:52;;;;;;;10.00;6.88;;;717.00;1843.20;;;;;;5036351;28;20032;-68
2021/07/12 08:40:21;;;;;;;7.38;6.45;;;717.00;1817.60;;;;;;5053548;28;20378;-65
2021/07/12 08:42:50;;;;;;;9.98;6.35;;;717.40;1792.00;;;;;;5054969;28;20053;-74
2021/07/12 08:45:16;;;;;;;11.55;6.57;;;717.60;1792.00;;;;;;5055978;28;20025;-72
2021/07/12 08:47:42;;;;;;;10.50;7.15;;;742.40;1817.60;;;;;;5055790;28;20120;-73
2021/07/12 08:50:08;;;;;;;8.15;6.82;;;742.50;1766.40;;;;;;5056390;28;20057;-75
2021/07/12 08:52:34;;;;;;;10.30;6.70;;;742.40;1766.40;;;;;;5056259;28;20067;-71
2021/07/12 08:55:00;;;;;;;9.40;6.85;;;742.60;1766.40;;;;;;5055966;28;20033;-72
2021/07/12 08:57:26;;;;;;;11.05;7.18;;;742.60;1766.40;;;;;;5041536;28;20052;-67
2021/07/12 08:59:55;;;;;;;10.30;6.70;;;742.70;1740.80;;;;;;5036200;28;20022;-68
2021/07/12 09:02:22;;;;;;;9.52;6.50;;;742.70;1740.80;;;;;;5036247;28;20022;-64
2021/07/12 09:04:53;;;;;;;12.25;6.65;;;742.80;1740.80;;;;;;5036039;28;20025;-70
2021/07/12 09:07:29;;;;;;;7.45;6.25;;;742.80;1740.80;;;;;;5035916;28;20133;-74
2021/07/12 09:10:11;;;;;;;9.77;6.43;;;742.80;1715.20;;;;;;5035715;28;20038;-65
2021/07/12 09:12:49;;;;;;;14.85;6.55;;;743.10;1715.20;;;;;;5036506;28;20101;-74
2021/07/12 09:15:18;;;;;;;8.68;6.50;;;743.20;1689.60;;;;;;5035723;28;20029;-65
2021/07/12 09:17:53;;;;;;;7.53;6.63;;;743.20;1664.00;;;;;;5035417;28;20033;-69
2021/07/12 09:20:27;;;;;;;9.52;6.70;;;743.00;1715.20;;;;;;5034909;28;20034;-71
2021/07/12 09:22:54;;;;;;;11.52;6.30;;;743.20;1664.00;;;;;;5035460;28;20049;-65
2021/07/12 09:25:20;;;;;;;10.02;6.35;;;768.00;1689.60;;;;;;5034838;28;20041;-69
2021/07/12 09:27:46;;;;;;;8.35;6.03;;;768.30;1638.40;;;;;;5035629;28;20028;-65
2021/07/12 09:30:14;;;;;;;7.88;6.05;;;768.80;1638.40;;;;;;5033217;28;20491;-75
2021/07/12 09:32:45;;;;;;;9.25;5.72;;;768.80;1612.80;;;;;;5035621;28;20443;-74
2021/07/12 09:35:14;;;;;;;8.13;5.90;;;768.90;1612.80;;;;;;5035166;28;20032;-69
2021/07/12 09:37:43;;;;;;;8.52;5.75;;;793.60;1638.40;;;;;;5033915;28;20068;-75
2021/07/12 09:40:15;;;;;;;9.77;6.20;;;793.80;1612.80;;;;;;5035570;28;20037;-63
2021/07/12 09:42:46;;;;;;;6.63;5.63;;;793.60;1587.20;;;;;;5035215;28;20042;-62
2021/07/12 09:45:14;;;;;;;9.15;6.10;;;793.80;1612.80;;;;;;5035336;28;20545;-64
2021/07/12 09:47:44;;;;;;;10.35;6.10;;;793.80;1587.20;;;;;;5034731;28;20034;-63
2021/07/12 09:50:17;;;;;;;6.97;5.45;;;793.70;1587.20;;;;;;5035107;28;20156;-72
2021/07/12 09:52:48;;;;;;;8.05;5.93;;;793.70;1638.40;;;;;;5034583;28;20018;-65
2021/07/12 09:55:23;;;;;;;7.57;5.30;;;793.90;1587.20;;;;;;5035172;28;20029;-65
2021/07/12 09:58:11;;;;;;;7.03;5.35;;;794.30;1561.60;;;;;;5034770;28;20057;-64
2021/07/12 10:00:57;;;;;;;6.72;5.38;;;794.30;1561.60;;;;;;5034823;28;20017;-63
2021/07/12 10:03:23;;;;;;;8.73;5.80;;;794.10;1561.60;;;;;;5034559;28;20083;-63
2021/07/12 10:05:50;;;;;;;9.38;6.03;;;793.90;1561.60;;;;;;5035186;28;20023;-62
2021/07/12 10:08:16;;;;;;;7.43;5.75;;;794.10;1536.00;;;;;;5034908;28;20109;-62
2021/07/12 10:10:42;;;;;;;7.78;5.50;;;794.00;1561.60;;;;;;5034782;28;20147;-63
2021/07/12 10:13:08;;;;;;;6.68;5.15;;;794.00;1561.60;;;;;;5034775;28;20429;-63
2021/07/12 10:15:37;;;;;;;6.90;5.40;;;794.10;1561.60;;;;;;5035110;28;20029;-62
2021/07/12 10:18:05;;;;;;;8.05;5.72;;;794.20;1536.00;;;;;;5034608;28;20032;-63
2021/07/12 10:20:33;;;;;;;7.25;5.60;;;794.10;1510.40;;;;;;5034691;28;20025;-62
2021/07/12 10:23:00;;;;;;;10.07;5.90;;;794.30;1510.40;;;;;;5034511;28;20483;-62
2021/07/12 10:25:29;;;;;;;9.20;6.30;;;794.20;1536.00;;;;;;5034551;28;20029;-66
2021/07/12 10:28:00;;;;;;;7.07;5.07;;;793.80;1561.60;;;;;;5033247;28;20025;-65
2021/07/12 10:30:34;;;;;;;9.00;5.22;;;793.90;1561.60;;;;;;5034499;28;20033;-66
2021/07/12 10:33:03;;;;;;;6.13;5.53;;;794.30;1536.00;;;;;;5034297;28;20519;-66
2021/07/12 10:35:39;;;;;;;8.05;5.15;;;794.40;1510.40;;;;;;5034313;28;20084;-65
2021/07/12 10:38:06;;;;;;;7.40;5.53;;;794.40;1484.80;;;;;;5034278;28;20101;-65
2021/07/12 10:40:51;;;;;;;9.32;5.55;;;819.20;1484.80;;;;;;5034208;28;20589;-68
2021/07/12 10:43:50;;;;;;;7.63;5.30;;;819.50;1484.80;;;;;;5034385;28;20112;-74
2021/07/12 10:46:28;;;;;;;11.50;5.20;;;820.00;1459.20;;;;;;5034255;28;20108;-68
2021/07/12 10:49:04;;;;;;;5.88;5.03;;;820.00;1459.20;;;;;;5033916;28;20025;-73
2021/07/12 10:51:40;;;;;;;5.78;5.13;;;844.80;1484.80;;;;;;5034276;28;20065;-66
2021/07/12 10:54:07;;;;;;;8.25;5.10;;;845.00;1459.20;;;;;;5033983;28;20471;-66
2021/07/12 10:56:59;;;;;;;7.43;4.95;;;845.00;1459.20;;;;;;5033821;28;20445;-66
2021/07/12 10:59:28;;;;;;;8.70;5.05;;;844.80;1459.20;;;;;;5033858;28;20475;-65
2021/07/12 11:01:54;;;;;;;8.98;4.72;;;845.00;1433.60;;;;;;5033360;28;20084;-66
2021/07/12 11:04:46;;;;;;;9.50;4.70;;;845.20;1459.20;;;;;;5034335;28;20049;-63
2021/07/12 11:07:17;;;;;;;5.60;4.53;;;845.20;1433.60;;;;;;5033753;28;20029;-66
2021/07/12 11:09:56;;;;;;;8.68;5.18;;;845.20;1433.60;;;;;;5033528;28;20104;-70
2021/07/12 11:12:33;;;;;;;8.90;5.28;;;845.50;1408.00;;;;;;5034040;28;20096;-66
2021/07/12 11:15:12;;;;;;;6.30;5.45;;;845.10;1433.60;;;;;;5033943;28;20050;-63
2021/07/12 11:17:48;;;;;;;6.35;5.15;;;820.00;1433.60;;;;;;5033322;28;20025;-71
2021/07/12 11:20:14;;;;;;;8.57;4.70;;;820.10;1433.60;;;;;;5033632;28;20021;-64
2021/07/12 11:22:53;;;;;;;10.88;5.05;;;844.80;1484.80;;;;;;5033612;28;20045;-65
2021/07/12 11:25:48;;;;;;;9.70;5.05;;;845.00;1459.20;;;;;;5033821;28;20033;-63
2021/07/12 11:28:16;;;;;;;6.35;5.22;;;845.10;1433.60;;;;;;5011955;28;20037;-65
2021/07/12 11:30:42;;;;;;;5.95;5.30;;;844.90;1459.20;;;;;;5011763;28;20034;-64
2021/07/12 11:33:08;;;;;;;6.75;4.68;;;845.00;1408.00;;;;;;5011759;28;20563;-69
2021/07/12 11:35:34;;;;;;;7.05;4.50;;;845.40;1433.60;;;;;;5011771;28;20033;-70
2021/07/12 11:38:03;;;;;;;7.72;4.53;;;845.70;1408.00;;;;;;5027374;28;20073;-70
2021/07/12 11:40:29;;;;;;;6.03;5.30;;;870.50;1356.80;;;;;;5011567;28;20030;-70
2021/07/12 11:42:55;;;;;;;7.60;5.05;;;845.60;1382.40;;;;;;5011983;28;20041;-70
2021/07/12 11:45:23;;;;;;;7.63;5.13;;;845.70;1382.40;;;;;;5015183;28;20034;-68
2021/07/12 11:47:53;;;;;;;6.85;5.40;;;870.40;1356.80;;;;;;5015528;28;20126;-65
2021/07/12 11:50:24;;;;;;;6.18;5.07;;;845.60;1356.80;;;;;;5015533;28;20075;-65
2021/07/12 11:52:53;;;;;;;6.07;5.38;;;845.40;1408.00;;;;;;5015472;28;20030;-65
2021/07/12 11:55:25;;;;;;;6.35;5.20;;;845.40;1382.40;;;;;;5015390;28;20446;-66
2021/07/12 11:57:55;;;;;;;6.22;4.80;;;845.20;1408.00;;;;;;5015236;28;20549;-67
2021/07/12 12:00:30;;;;;;;6.18;4.93;;;845.60;1408.00;;;;;;5015485;28;20037;-64
2021/07/12 12:03:01;;;;;;;7.45;5.30;;;870.40;1382.40;;;;;;5015236;28;20038;-69
2021/07/12 12:05:29;;;;;;;6.22;4.90;;;870.40;1356.80;;;;;;5033754;28;20033;-68
2021/07/12 12:07:57;;;;;;;6.68;4.90;;;870.60;1408.00;;;;;;5037341;28;20079;-71
2021/07/12 12:10:38;;;;;;;7.82;5.07;;;870.80;1305.60;;;;;;5037010;28;20120;-67
2021/07/12 12:13:20;;;;;;;5.43;4.68;;;871.00;1305.60;;;;;;5037069;28;20030;-69
2021/07/12 12:15:51;;;;;;;8.15;5.00;;;871.20;1280.00;;;;;;5037064;28;20352;-71
2021/07/12 12:18:20;;;;;;;6.68;5.00;;;896.00;1280.00;;;;;;5036828;28;20022;-71
2021/07/12 12:20:55;;;;;;;6.13;5.00;;;871.00;1280.00;;;;;;5036930;28;20018;-71
2021/07/12 12:23:23;;;;;;;8.30;4.95;;;871.20;1305.60;;;;;;5036682;28;20479;-71